createdAt,value
2023-04-27T00:00:27.285Z,1616.59
2023-04-27T00:01:27.266Z,1599.29
2023-04-27T00:02:27.385Z,1618.53
2023-04-27T00:03:27.482Z,1603.10
2023-04-27T00:04:27.633Z,1612.71
2023-04-27T00:05:27.297Z,1594.55
2023-04-27T00:06:27.214Z,1667.70
2023-04-27T00:07:27.198Z,1662.55
2023-04-27T00:08:27.249Z,1668.73
2023-04-27T00:09:27.172Z,1646.27
2023-04-27T00:10:27.154Z,1655.38
2023-04-27T00:11:27.167Z,1683.35
2023-04-27T00:12:27.127Z,1683.35
2023-04-27T00:13:27.130Z,1686.52
2023-04-27T00:14:27.108Z,1676.01
2023-04-27T00:15:27.119Z,1686.52
2023-04-27T00:16:27.111Z,1599.29
2023-04-27T00:17:27.132Z,1550.43
2023-04-27T00:18:27.043Z,1492.79
2023-04-27T00:19:27.078Z,1412.81
2023-04-27T00:20:27.047Z,1335.65
2023-04-27T00:21:27.027Z,1178.79
2023-04-27T00:22:27.004Z,947.18
2023-04-27T00:23:26.989Z,810.73
2023-04-27T00:24:26.987Z,739.90
2023-04-27T00:25:26.960Z,652.26
2023-04-27T00:26:26.946Z,589.32
2023-04-27T00:27:26.959Z,534.04
2023-04-27T00:28:26.926Z,494.72
2023-04-27T00:29:26.928Z,458.90
2023-04-27T00:30:26.905Z,472.12
2023-04-27T00:31:26.908Z,484.03
2023-04-27T00:32:26.880Z,491.82
2023-04-27T00:33:26.851Z,509.35
2023-04-27T00:34:26.855Z,520.80
2023-04-27T00:35:26.860Z,523.23
2023-04-27T00:36:26.836Z,514.42
2023-04-27T00:37:26.809Z,488.96
2023-04-27T00:38:26.798Z,471.46
2023-04-27T00:39:26.774Z,477.83
2023-04-27T00:40:26.771Z,486.13
2023-04-27T00:41:26.774Z,500.24
2023-04-27T00:42:26.737Z,498.02
2023-04-27T00:43:26.727Z,508.19
2023-04-27T00:44:26.754Z,521.60
2023-04-27T00:45:26.712Z,524.46
2023-04-27T00:46:26.761Z,523.64
2023-04-27T00:47:26.759Z,514.02
2023-04-27T00:48:26.679Z,508.58
2023-04-27T00:49:26.652Z,514.81
2023-04-27T00:50:26.635Z,512.06
2023-04-27T00:51:26.632Z,516.79
2023-04-27T00:52:26.616Z,511.67
2023-04-27T00:53:26.614Z,508.58
2023-04-27T00:54:26.594Z,508.58
2023-04-27T00:55:26.591Z,524.46
2023-04-27T00:56:26.557Z,543.55
2023-04-27T00:57:26.550Z,560.79
2023-04-27T00:58:26.599Z,571.28
2023-04-27T00:59:26.550Z,574.21
2023-04-27T01:00:26.518Z,567.42
2023-04-27T01:01:26.583Z,561.73
2023-04-27T01:02:26.540Z,547.54
2023-04-27T01:03:33.508Z,545.32
2023-04-27T01:04:26.599Z,551.58
2023-04-27T01:05:26.456Z,566.47
2023-04-27T01:06:26.448Z,595.59
2023-04-27T01:07:26.415Z,636.80
2023-04-27T01:08:26.416Z,679.30
2023-04-27T01:09:26.465Z,694.04
2023-04-27T01:10:26.382Z,692.61
2023-04-27T01:11:26.372Z,689.05
2023-04-27T01:12:26.366Z,670.49
2023-04-27T01:13:26.361Z,659.30
2023-04-27T01:14:26.329Z,663.21
2023-04-27T01:15:26.336Z,675.88
2023-04-27T01:16:26.447Z,699.82
2023-04-27T01:17:26.309Z,710.18
2023-04-27T01:18:26.296Z,716.23
2023-04-27T01:19:26.260Z,710.93
2023-04-27T01:20:26.250Z,707.19
2023-04-27T01:21:26.260Z,696.20
2023-04-27T01:22:26.237Z,700.55
2023-04-27T01:23:26.222Z,740.71
2023-04-27T01:24:26.205Z,769.45
2023-04-27T01:25:26.222Z,748.05
2023-04-27T01:26:26.172Z,733.44
2023-04-27T01:27:26.191Z,729.46
2023-04-27T01:28:26.148Z,728.66
2023-04-27T01:29:26.166Z,730.25
2023-04-27T01:30:26.116Z,722.40
2023-04-27T01:31:26.196Z,714.71
2023-04-27T01:32:26.141Z,692.61
2023-04-27T01:33:26.128Z,686.24
2023-04-27T01:34:26.071Z,696.20
2023-04-27T01:35:28.280Z,641.67
2023-04-27T01:36:26.059Z,580.66
2023-04-27T01:37:26.055Z,493.99
2023-04-27T01:38:26.035Z,415.22
2023-04-27T01:39:26.018Z,348.50
2023-04-27T01:40:26.001Z,290.09
2023-04-27T01:41:26.014Z,248.26
2023-04-27T01:42:25.994Z,225.10
2023-04-27T01:43:25.955Z,220.01
2023-04-27T01:44:25.954Z,224.03
2023-04-27T01:45:25.934Z,233.86
2023-04-27T01:46:26.011Z,234.69
2023-04-27T01:47:25.939Z,246.23
2023-04-27T01:48:25.905Z,257.35
2023-04-27T01:49:25.888Z,276.97
2023-04-27T01:50:25.889Z,308.79
2023-04-27T01:51:25.893Z,334.40
2023-04-27T01:52:25.852Z,356.39
2023-04-27T01:53:25.859Z,379.14
2023-04-27T01:54:28.096Z,399.42
2023-04-27T01:55:25.828Z,417.28
2023-04-27T01:56:25.842Z,429.56
2023-04-27T01:57:25.795Z,429.01
2023-04-27T01:58:25.766Z,437.39
2023-04-27T01:59:25.788Z,437.96
2023-04-27T02:00:25.758Z,439.97
2023-04-27T02:01:25.794Z,446.10
2023-04-27T02:02:25.822Z,452.11
2023-04-27T02:03:25.902Z,465.90
2023-04-27T02:04:25.816Z,495.81
2023-04-27T02:05:25.687Z,516.39
2023-04-27T02:06:25.699Z,535.75
2023-04-27T02:07:25.670Z,566.47
2023-04-27T02:08:25.657Z,585.22
2023-04-27T02:09:25.640Z,587.26
2023-04-27T02:10:25.634Z,583.69
2023-04-27T02:11:25.604Z,593.49
2023-04-27T02:12:25.617Z,615.79
2023-04-27T02:13:25.591Z,626.71
2023-04-27T02:14:25.598Z,625.54
2023-04-27T02:15:25.563Z,590.36
2023-04-27T02:16:25.647Z,547.09
2023-04-27T02:17:25.581Z,500.62
2023-04-27T02:18:25.540Z,463.65
2023-04-27T02:19:25.503Z,438.24
2023-04-27T02:20:25.501Z,416.77
2023-04-27T02:21:25.473Z,416.51
2023-04-27T02:22:25.494Z,424.40
2023-04-27T02:23:25.481Z,429.28
2023-04-27T02:24:25.432Z,417.54
2023-04-27T02:25:25.435Z,413.94
2023-04-27T02:26:25.415Z,405.20
2023-04-27T02:27:25.404Z,397.77
2023-04-27T02:28:25.392Z,383.46
2023-04-27T02:29:25.416Z,387.44
2023-04-27T02:30:25.365Z,402.29
2023-04-27T02:31:25.376Z,406.67
2023-04-27T02:32:25.399Z,409.65
2023-04-27T02:33:25.368Z,431.21
2023-04-27T02:34:25.327Z,441.12
2023-04-27T02:35:25.334Z,452.11
2023-04-27T02:36:25.294Z,468.50
2023-04-27T02:37:25.282Z,486.13
2023-04-27T02:38:25.280Z,503.62
2023-04-27T02:39:25.244Z,517.19
2023-04-27T02:40:25.226Z,527.34
2023-04-27T02:41:25.242Z,531.51
2023-04-27T02:42:25.209Z,530.25
2023-04-27T02:43:25.198Z,532.35
2023-04-27T02:44:25.198Z,533.62
2023-04-27T02:45:25.187Z,528.17
2023-04-27T02:46:25.225Z,504.00
2023-04-27T02:47:25.244Z,457.02
2023-04-27T02:48:25.136Z,410.65
2023-04-27T02:49:25.133Z,365.46
2023-04-27T02:50:25.095Z,329.08
2023-04-27T02:51:25.096Z,313.18
2023-04-27T02:52:25.096Z,316.47
2023-04-27T02:53:25.086Z,318.00
2023-04-27T02:54:25.054Z,329.08
2023-04-27T02:55:25.056Z,350.35
2023-04-27T02:56:25.057Z,372.04
2023-04-27T02:57:25.031Z,374.14
2023-04-27T02:58:25.002Z,374.57
2023-04-27T02:59:25.022Z,361.46
2023-04-27T03:00:24.976Z,360.67
2023-04-27T03:01:25.004Z,357.16
2023-04-27T03:02:25.027Z,385.00
2023-04-27T03:03:25.209Z,456.10
2023-04-27T03:04:25.004Z,523.23
2023-04-27T03:05:24.918Z,574.21
2023-04-27T03:06:24.912Z,608.54
2023-04-27T03:07:24.880Z,627.88
2023-04-27T03:08:24.898Z,634.40
2023-04-27T03:09:24.874Z,630.23
2023-04-27T03:10:24.852Z,634.40
2023-04-27T03:11:24.851Z,631.42
2023-04-27T03:12:24.820Z,618.63
2023-04-27T03:13:24.811Z,604.71
2023-04-27T03:14:24.820Z,602.54
2023-04-27T03:15:24.795Z,595.59
2023-04-27T03:16:24.828Z,583.18
2023-04-27T03:17:24.793Z,553.40
2023-04-27T03:18:24.761Z,514.42
2023-04-27T03:19:24.749Z,474.79
2023-04-27T03:20:24.741Z,449.68
2023-04-27T03:21:24.711Z,422.27
2023-04-27T03:22:24.706Z,405.45
2023-04-27T03:23:24.707Z,397.06
2023-04-27T03:24:24.681Z,387.89
2023-04-27T03:25:24.692Z,373.72
2023-04-27T03:26:24.662Z,361.86
2023-04-27T03:27:24.627Z,352.97
2023-04-27T03:28:24.647Z,339.90
2023-04-27T03:29:24.620Z,328.10
2023-04-27T03:30:24.590Z,327.12
2023-04-27T03:31:24.588Z,333.05
2023-04-27T03:32:24.616Z,330.72
2023-04-27T03:33:24.551Z,315.27
2023-04-27T03:34:24.559Z,306.50
2023-04-27T03:35:24.537Z,303.68
2023-04-27T03:36:24.509Z,310.53
2023-04-27T03:37:24.511Z,310.53
2023-04-27T03:38:24.522Z,303.12
2023-04-27T03:39:24.480Z,288.32
2023-04-27T03:40:24.480Z,269.73
2023-04-27T03:41:24.449Z,242.43
2023-04-27T03:42:24.443Z,222.68
2023-04-27T03:43:24.424Z,204.24
2023-04-27T03:44:24.439Z,192.58
2023-04-27T03:45:24.410Z,182.15
2023-04-27T03:46:24.409Z,170.17
2023-04-27T03:47:24.457Z,159.21
2023-04-27T03:48:24.387Z,149.05
2023-04-27T03:49:24.352Z,142.96
2023-04-27T03:50:24.380Z,143.82
2023-04-27T03:51:24.349Z,148.78
2023-04-27T03:52:24.324Z,153.12
2023-04-27T03:53:24.310Z,155.53
2023-04-27T03:54:24.287Z,158.61
2023-04-27T03:55:24.267Z,156.83
2023-04-27T03:56:24.335Z,151.60
2023-04-27T03:57:24.247Z,147.22
2023-04-27T03:58:24.239Z,144.19
2023-04-27T03:59:24.216Z,141.76
2023-04-27T04:00:24.215Z,145.44
2023-04-27T04:01:24.190Z,149.05
2023-04-27T04:02:24.344Z,153.54
2023-04-27T04:03:24.283Z,159.66
2023-04-27T04:04:24.320Z,167.12
2023-04-27T04:05:24.172Z,173.50
2023-04-27T04:06:24.126Z,176.60
2023-04-27T04:07:24.150Z,185.77
2023-04-27T04:08:24.124Z,194.62
2023-04-27T04:09:24.197Z,202.12
2023-04-27T04:10:24.085Z,210.88
2023-04-27T04:11:24.069Z,227.27
2023-04-27T04:12:24.086Z,245.50
2023-04-27T04:13:24.052Z,250.71
2023-04-27T04:14:24.029Z,254.18
2023-04-27T04:15:24.026Z,248.82
2023-04-27T04:16:24.110Z,233.37
2023-04-27T04:17:24.013Z,219.42
2023-04-27T04:18:23.968Z,210.75
2023-04-27T04:19:24.028Z,213.06
2023-04-27T04:20:23.980Z,212.38
2023-04-27T04:21:23.943Z,216.55
2023-04-27T04:22:23.930Z,214.86
2023-04-27T04:23:23.905Z,212.38
2023-04-27T04:24:23.910Z,211.29
2023-04-27T04:25:23.896Z,211.42
2023-04-27T04:26:23.870Z,211.15
2023-04-27T04:27:23.864Z,212.51
2023-04-27T04:28:23.867Z,212.38
2023-04-27T04:29:23.866Z,209.41
2023-04-27T04:30:23.839Z,203.86
2023-04-27T04:31:23.874Z,202.49
2023-04-27T04:32:23.811Z,198.12
2023-04-27T04:33:23.784Z,191.35
2023-04-27T04:34:23.777Z,191.35
2023-04-27T04:35:23.759Z,192.47
2023-04-27T04:36:23.765Z,201.38
2023-04-27T04:37:23.733Z,202.61
2023-04-27T04:38:23.730Z,196.59
2023-04-27T04:39:23.699Z,196.82
2023-04-27T04:40:23.699Z,192.02
2023-04-27T04:41:23.697Z,188.62
2023-04-27T04:42:23.674Z,180.01
2023-04-27T04:43:23.668Z,179.24
2023-04-27T04:44:23.666Z,175.31
2023-04-27T04:45:23.650Z,171.03
2023-04-27T04:46:23.642Z,165.48
2023-04-27T04:47:23.641Z,166.29
2023-04-27T04:48:23.590Z,166.46
2023-04-27T04:49:23.579Z,162.75
2023-04-27T04:50:23.583Z,158.01
2023-04-27T04:51:23.577Z,153.96
2023-04-27T04:52:23.532Z,149.71
2023-04-27T04:53:23.521Z,152.01
2023-04-27T04:54:23.520Z,152.56
2023-04-27T04:55:23.510Z,157.42
2023-04-27T04:56:23.492Z,157.71
2023-04-27T04:57:23.515Z,163.86
2023-04-27T04:58:23.464Z,171.38
2023-04-27T04:59:23.451Z,185.57
2023-04-27T05:00:23.466Z,191.57
2023-04-27T05:01:23.490Z,197.65
2023-04-27T05:02:23.482Z,216.69
2023-04-27T05:03:23.662Z,230.92
2023-04-27T05:04:23.499Z,240.15
2023-04-27T05:05:23.381Z,241.90
2023-04-27T05:06:23.362Z,248.26
2023-04-27T05:07:24.988Z,265.83
2023-04-27T05:08:23.333Z,283.38
2023-04-27T05:09:23.328Z,295.54
2023-04-27T05:10:23.317Z,301.47
2023-04-27T05:11:23.325Z,296.86
2023-04-27T05:12:23.309Z,295.01
2023-04-27T05:13:23.289Z,295.54
2023-04-27T05:14:23.273Z,306.50
2023-04-27T05:15:23.252Z,332.39
2023-04-27T05:16:23.241Z,342.72
2023-04-27T05:17:23.271Z,350.35
2023-04-27T05:18:23.227Z,358.33
2023-04-27T05:19:23.212Z,367.49
2023-04-27T05:20:23.188Z,358.71
2023-04-27T05:21:23.173Z,349.24
2023-04-27T05:22:23.180Z,354.48
2023-04-27T05:23:23.132Z,372.04
2023-04-27T05:24:23.159Z,393.57
2023-04-27T05:25:23.120Z,404.47
2023-04-27T05:26:23.104Z,420.68
2023-04-27T05:27:23.109Z,437.10
2023-04-27T05:28:23.090Z,455.17
2023-04-27T05:29:23.072Z,461.10
2023-04-27T05:30:23.081Z,459.84
2023-04-27T05:31:23.075Z,467.20
2023-04-27T05:32:23.092Z,459.53
2023-04-27T05:33:23.030Z,443.45
2023-04-27T05:34:23.011Z,453.94
2023-04-27T05:35:23.022Z,464.93
2023-04-27T05:36:22.992Z,498.02
2023-04-27T05:37:22.995Z,508.58
2023-04-27T05:38:22.951Z,503.62
2023-04-27T05:39:22.937Z,519.19
2023-04-27T05:40:22.945Z,529.00
2023-04-27T05:41:22.929Z,535.32
2023-04-27T05:42:22.932Z,539.19
2023-04-27T05:43:22.897Z,556.15
2023-04-27T05:44:22.902Z,561.73
2023-04-27T05:45:22.873Z,564.09
2023-04-27T05:46:22.880Z,587.26
2023-04-27T05:47:22.867Z,600.38
2023-04-27T05:48:22.839Z,613.54
2023-04-27T05:49:22.823Z,597.18
2023-04-27T05:50:22.813Z,615.23
2023-04-27T05:51:22.797Z,620.91
2023-04-27T05:52:22.794Z,631.42
2023-04-27T05:53:22.783Z,630.23
2023-04-27T05:54:22.781Z,625.54
2023-04-27T05:55:22.757Z,620.91
2023-04-27T05:56:22.747Z,624.38
2023-04-27T05:57:22.714Z,641.67
2023-04-27T05:58:22.746Z,664.52
2023-04-27T05:59:22.683Z,675.88
2023-04-27T06:00:22.692Z,668.48
2023-04-27T06:01:22.678Z,665.18
2023-04-27T06:02:22.968Z,661.90
2023-04-27T06:03:22.785Z,667.82
2023-04-27T06:04:22.865Z,659.95
2023-04-27T06:05:22.626Z,662.55
2023-04-27T06:06:22.613Z,658.66
2023-04-27T06:07:22.585Z,665.18
2023-04-27T06:08:22.576Z,656.72
2023-04-27T06:09:22.580Z,678.61
2023-04-27T06:10:22.552Z,688.35
2023-04-27T06:11:22.525Z,692.61
2023-04-27T06:12:22.540Z,678.61
2023-04-27T06:13:22.678Z,664.52
2023-04-27T06:14:22.527Z,654.16
2023-04-27T06:15:22.485Z,658.01
2023-04-27T06:16:22.513Z,665.84
2023-04-27T06:17:22.454Z,691.89
2023-04-27T06:18:22.480Z,704.22
2023-04-27T06:19:22.440Z,704.96
2023-04-27T06:20:22.428Z,689.76
2023-04-27T06:21:22.412Z,670.49
2023-04-27T06:22:22.399Z,665.84
2023-04-27T06:23:22.384Z,661.25
2023-04-27T06:24:22.387Z,675.88
2023-04-27T06:25:24.465Z,665.84
2023-04-27T06:26:22.353Z,667.82
2023-04-27T06:27:22.331Z,670.49
2023-04-27T06:28:22.317Z,672.50
2023-04-27T06:29:22.308Z,682.75
2023-04-27T06:30:22.285Z,701.28
2023-04-27T06:31:22.311Z,703.48
2023-04-27T06:32:22.358Z,714.71
2023-04-27T06:33:22.247Z,713.19
2023-04-27T06:34:22.232Z,699.09
2023-04-27T06:35:22.219Z,677.25
2023-04-27T06:36:22.209Z,679.30
2023-04-27T06:38:22.186Z,684.14
2023-04-27T06:39:22.168Z,716.23
2023-04-27T06:40:22.174Z,737.46
2023-04-27T06:41:22.154Z,731.04
2023-04-27T06:42:22.144Z,712.44
2023-04-27T06:43:22.150Z,707.93
2023-04-27T06:44:22.106Z,717.00
2023-04-27T06:45:22.086Z,739.08
2023-04-27T06:46:22.129Z,773.43
2023-04-27T06:47:22.063Z,800.59
2023-04-27T06:48:22.150Z,790.25
2023-04-27T06:49:22.082Z,801.55
2023-04-27T06:50:22.033Z,786.55
2023-04-27T06:51:22.023Z,765.51
2023-04-27T06:52:22.017Z,793.51
2023-04-27T06:53:21.987Z,809.27
2023-04-27T06:54:21.990Z,810.73
2023-04-27T06:55:21.981Z,823.13
2023-04-27T06:56:21.960Z,850.19
2023-04-27T06:57:21.962Z,873.38
2023-04-27T06:58:21.926Z,879.09
2023-04-27T06:59:21.914Z,877.94
2023-04-27T07:00:21.898Z,848.04
2023-04-27T07:01:21.963Z,851.27
2023-04-27T07:02:23.762Z,875.65
2023-04-27T07:03:22.046Z,896.07
2023-04-27T07:04:22.061Z,924.40
2023-04-27T07:05:21.860Z,939.24
2023-04-27T07:06:21.813Z,971.82
2023-04-27T07:07:21.842Z,999.26
2023-04-27T07:08:21.796Z,1049.14
2023-04-27T07:10:21.819Z,1096.17
2023-04-27T07:11:21.775Z,1145.66
2023-04-27T07:12:21.750Z,1146.63
2023-04-27T07:13:21.753Z,1146.63
2023-04-27T07:14:21.731Z,1162.49
2023-04-27T07:15:21.709Z,1188.16
2023-04-27T07:16:21.762Z,1177.76
2023-04-27T07:17:21.715Z,1164.50
2023-04-27T07:18:21.666Z,1201.97
2023-04-27T07:19:21.679Z,1205.20
2023-04-27T07:20:21.641Z,1207.36
2023-04-27T07:21:21.647Z,1201.97
2023-04-27T07:22:21.679Z,1177.76
2023-04-27T07:23:21.640Z,1199.82
2023-04-27T07:24:21.605Z,1219.40
2023-04-27T07:25:21.616Z,1172.62
2023-04-27T07:26:21.589Z,1188.16
2023-04-27T07:27:21.559Z,1198.75
2023-04-27T07:28:21.558Z,1189.21
2023-04-27T07:29:26.940Z,1196.62
2023-04-27T07:30:21.519Z,1218.30
2023-04-27T07:31:21.549Z,1173.65
2023-04-27T07:32:21.496Z,1156.49
2023-04-27T07:33:21.500Z,1178.79
2023-04-27T07:34:21.491Z,1175.70
2023-04-27T07:35:21.452Z,1195.56
2023-04-27T07:36:21.459Z,1305.82
2023-04-27T07:37:21.444Z,1361.33
2023-04-27T07:38:21.417Z,1353.12
2023-04-27T07:39:21.396Z,1353.12
2023-04-27T07:40:21.388Z,1312.19
2023-04-27T07:41:21.383Z,1343.66
2023-04-27T07:42:21.356Z,1409.85
2023-04-27T07:43:21.368Z,1366.87
2023-04-27T07:44:21.334Z,1383.74
2023-04-27T07:45:21.315Z,1430.85
2023-04-27T07:46:21.340Z,1454.05
2023-04-27T07:47:21.312Z,1491.13
2023-04-27T07:48:21.358Z,1532.76
2023-04-27T07:49:21.294Z,1512.08
2023-04-27T07:50:21.260Z,1491.13
2023-04-27T07:51:21.240Z,1502.79
2023-04-27T07:52:21.239Z,1436.96
2023-04-27T07:53:21.245Z,1466.74
2023-04-27T07:54:21.212Z,1447.79
2023-04-27T07:55:21.229Z,1468.34
2023-04-27T07:56:21.184Z,1476.40
2023-04-27T07:57:21.155Z,1487.83
2023-04-27T07:58:21.152Z,1479.65
2023-04-27T07:59:21.159Z,1504.47
2023-04-27T08:00:21.187Z,1497.77
2023-04-27T08:01:21.587Z,1517.20
2023-04-27T08:02:21.197Z,1525.81
2023-04-27T08:03:21.288Z,1616.59
2023-04-27T08:04:21.224Z,1654.37
2023-04-27T08:05:21.443Z,1677.06
2023-04-27T08:06:21.876Z,1672.89
2023-04-27T08:07:21.642Z,1631.29
2023-04-27T08:08:21.089Z,1588.90
2023-04-27T08:09:21.031Z,1565.77
2023-04-27T08:10:21.008Z,1612.71
2023-04-27T08:11:21.003Z,1706.85
2023-04-27T08:12:21.005Z,1709.02
2023-04-27T08:13:20.964Z,1654.37
2023-04-27T08:14:20.960Z,1722.15
2023-04-27T08:15:20.961Z,1793.33
2023-04-27T08:16:20.939Z,1856.45
2023-04-27T08:17:20.926Z,1839.94
2023-04-27T08:18:20.934Z,1741.10
2023-04-27T08:19:20.909Z,1589.83
2023-04-27T08:20:20.904Z,1517.20
2023-04-27T08:21:20.885Z,1515.49
2023-04-27T08:22:20.853Z,1549.54
2023-04-27T08:23:20.865Z,1600.24
2023-04-27T08:24:20.879Z,1624.40
2023-04-27T08:25:20.820Z,1603.10
2023-04-27T08:26:20.815Z,1533.64
2023-04-27T08:27:20.821Z,1433.90
2023-04-27T08:28:20.790Z,1318.63
2023-04-27T08:29:27.729Z,1334.32
2023-04-27T08:30:20.780Z,1415.79
2023-04-27T08:31:20.766Z,1376.66
2023-04-27T08:32:20.718Z,1361.33
2023-04-27T08:33:20.730Z,1496.94
2023-04-27T08:34:20.772Z,1612.71
2023-04-27T08:35:20.697Z,1501.12
2023-04-27T08:36:20.670Z,1457.20
2023-04-27T08:37:20.679Z,1415.79
2023-04-27T08:38:20.651Z,1474.78
2023-04-27T08:39:20.647Z,1545.98
2023-04-27T08:40:20.673Z,1509.54
2023-04-27T08:41:21.724Z,1444.68
2023-04-27T08:42:20.597Z,1457.20
2023-04-27T08:43:20.586Z,1519.77
2023-04-27T08:44:20.583Z,1590.77
2023-04-27T08:45:20.591Z,1632.28
2023-04-27T08:46:20.612Z,1659.47
2023-04-27T08:47:28.419Z,1589.83
2023-04-27T08:48:20.587Z,1478.02
2023-04-27T08:49:20.811Z,1299.52
2023-04-27T08:50:20.517Z,1118.04
2023-04-27T08:51:20.497Z,1076.00
2023-04-27T08:52:20.498Z,1150.56
2023-04-27T08:53:20.462Z,1243.07
2023-04-27T08:54:20.455Z,1262.91
2023-04-27T08:55:20.446Z,1322.52
2023-04-27T08:56:20.439Z,1461.96
2023-04-27T08:57:20.444Z,1503.63
2023-04-27T08:58:20.412Z,1556.71
2023-04-27T08:59:20.408Z,1585.15
2023-04-27T09:00:20.375Z,1491.13
2023-04-27T09:01:20.400Z,1498.61
2023-04-27T09:02:20.387Z,1605.01
2023-04-27T09:03:20.548Z,1656.40
2023-04-27T09:04:20.551Z,1653.35
2023-04-27T09:05:20.389Z,1681.25
2023-04-27T09:06:20.375Z,1632.28
2023-04-27T09:07:20.289Z,1661.52
2023-04-27T09:08:20.298Z,1877.18
2023-04-27T09:09:20.263Z,2129.85
2023-04-27T09:10:20.253Z,2160.64
2023-04-27T09:11:20.233Z,2243.54
2023-04-27T09:12:20.256Z,2129.85
2023-04-27T09:13:20.223Z,2044.07
2023-04-27T09:14:20.213Z,2146.85
2023-04-27T09:15:20.210Z,2164.12
2023-04-27T09:16:20.261Z,2221.30
2023-04-27T09:17:20.217Z,2601.55
2023-04-27T09:18:20.164Z,3097.29
2023-04-27T09:19:20.159Z,3370.93
2023-04-27T09:20:20.185Z,3826.46
2023-04-27T09:21:20.125Z,3935.62
2023-04-27T09:22:20.126Z,3859.40
2023-04-27T09:23:20.096Z,3736.11
2023-04-27T09:24:20.094Z,3470.97
2023-04-27T09:25:20.087Z,3221.56
2023-04-27T09:26:20.165Z,3012.32
2023-04-27T09:27:20.109Z,3063.78
2023-04-27T09:28:20.111Z,2923.91
2023-04-27T09:29:20.090Z,2927.09
2023-04-27T09:30:20.181Z,3093.73
2023-04-27T09:31:20.054Z,3215.78
2023-04-27T09:32:20.042Z,3210.02
2023-04-27T09:33:20.018Z,3159.13
2023-04-27T09:34:20.040Z,3162.84
2023-04-27T09:35:19.973Z,3113.43
2023-04-27T09:36:20.026Z,3248.79
2023-04-27T09:37:19.953Z,3514.04
2023-04-27T09:38:20.016Z,3400.76
2023-04-27T09:39:19.942Z,3237.06
2023-04-27T09:40:19.981Z,3246.83
2023-04-27T09:41:19.937Z,3630.23
2023-04-27T09:42:19.922Z,3904.21
2023-04-27T09:43:19.910Z,3901.38
2023-04-27T09:44:19.928Z,3692.52
2023-04-27T09:45:19.882Z,3453.15
2023-04-27T09:46:19.928Z,3248.79
2023-04-27T09:47:19.908Z,3037.83
2023-04-27T09:48:19.855Z,2861.70
2023-04-27T09:49:19.909Z,2604.06
2023-04-27T09:50:19.946Z,2540.13
2023-04-27T09:51:19.844Z,2374.23
2023-04-27T09:52:19.811Z,2264.31
2023-04-27T09:53:19.807Z,2104.85
2023-04-27T09:54:19.800Z,1871.95
2023-04-27T09:55:19.814Z,1721.05
2023-04-27T09:56:19.768Z,1698.23
2023-04-27T09:57:19.772Z,1609.81
2023-04-27T09:58:19.734Z,1602.14
2023-04-27T09:59:19.761Z,1509.54
2023-04-27T10:00:19.744Z,1582.35
2023-04-27T10:01:19.806Z,1608.85
2023-04-27T10:02:25.365Z,1545.98
2023-04-27T10:03:19.776Z,1460.37
2023-04-27T10:04:19.770Z,1447.79
2023-04-27T10:05:19.747Z,1401.04
2023-04-27T10:06:19.674Z,1333.00
2023-04-27T10:07:19.636Z,1290.79
2023-04-27T10:08:19.620Z,1276.09
2023-04-27T10:09:19.612Z,1220.51
2023-04-27T10:10:19.674Z,1220.51
2023-04-27T10:11:19.588Z,1229.43
2023-04-27T10:12:19.598Z,1217.19
2023-04-27T10:13:19.562Z,1173.65
2023-04-27T10:14:19.580Z,1136.94
2023-04-27T10:15:19.540Z,1248.84
2023-04-27T10:16:19.579Z,1389.46
2023-04-27T10:17:19.507Z,1469.94
2023-04-27T10:18:19.514Z,1486.19
2023-04-27T10:19:19.504Z,1487.83
2023-04-27T10:20:19.473Z,1499.44
2023-04-27T10:21:19.460Z,1494.44
2023-04-27T10:22:19.446Z,1468.34
2023-04-27T10:23:19.469Z,1510.39
2023-04-27T10:24:19.451Z,1523.22
2023-04-27T10:25:19.985Z,1560.32
2023-04-27T10:26:19.402Z,1529.28
2023-04-27T10:27:19.389Z,1478.02
2023-04-27T10:28:19.378Z,1508.69
2023-04-27T10:29:19.362Z,1666.67
2023-04-27T10:30:19.435Z,1894.37
2023-04-27T10:31:19.350Z,2039.42
2023-04-27T10:32:19.355Z,2042.52
2023-04-27T10:33:19.351Z,1931.08
2023-04-27T10:34:21.340Z,1857.73
2023-04-27T10:35:19.316Z,1877.18
2023-04-27T10:36:19.284Z,2145.14
2023-04-27T10:37:19.279Z,2309.01
2023-04-27T10:38:19.279Z,2301.11
2023-04-27T10:39:19.250Z,2458.87
2023-04-27T10:40:19.326Z,2621.83
2023-04-27T10:41:19.220Z,2549.76
2023-04-27T10:42:19.217Z,2730.96
2023-04-27T10:43:19.196Z,2858.66
2023-04-27T10:44:19.208Z,2908.11
2023-04-27T10:45:19.176Z,3053.35
2023-04-27T10:46:19.214Z,3329.21
2023-04-27T10:47:19.156Z,3331.27
2023-04-27T10:48:19.142Z,3280.49
2023-04-27T10:49:19.149Z,3383.65
2023-04-27T10:50:19.107Z,3385.78
2023-04-27T10:51:19.108Z,3493.51
2023-04-27T10:52:19.113Z,3565.27
2023-04-27T10:53:19.081Z,3772.79
2023-04-27T10:54:19.107Z,4045.11
2023-04-27T10:55:19.067Z,4078.85
2023-04-27T10:56:19.073Z,4359.81
2023-04-27T10:57:19.030Z,4427.98
2023-04-27T10:58:19.043Z,4449.96
2023-04-27T10:59:19.008Z,4464.73
2023-04-27T11:00:19.042Z,4590.44
2023-04-27T11:01:19.071Z,4666.09
2023-04-27T11:02:19.105Z,4524.81
2023-04-27T11:03:19.028Z,4435.28
2023-04-27T11:04:18.970Z,4521.01
2023-04-27T11:05:18.969Z,4317.82
2023-04-27T11:06:18.971Z,4395.42
2023-04-27T11:07:18.936Z,4317.82
2023-04-27T11:08:18.918Z,4543.92
2023-04-27T11:09:18.905Z,4744.27
2023-04-27T11:10:18.896Z,4567.06
2023-04-27T11:11:18.896Z,4505.86
2023-04-27T11:12:18.887Z,4453.64
2023-04-27T11:13:18.853Z,4290.27
2023-04-27T11:14:18.842Z,3901.38
2023-04-27T11:15:18.840Z,3746.52
2023-04-27T11:16:18.864Z,3689.99
2023-04-27T11:17:18.809Z,3720.61
2023-04-27T11:18:18.806Z,3892.91
2023-04-27T11:19:18.788Z,3952.98
2023-04-27T11:20:18.789Z,4151.23
2023-04-27T11:21:18.776Z,4649.96
2023-04-27T11:22:18.753Z,4972.27
2023-04-27T11:23:18.740Z,5104.36
2023-04-27T11:24:18.735Z,4536.26
2023-04-27T11:25:18.738Z,4242.90
2023-04-27T11:26:18.711Z,4653.98
2023-04-27T11:27:18.688Z,4629.95
2023-04-27T11:28:18.703Z,4338.71
2023-04-27T11:29:18.676Z,4183.51
2023-04-27T11:30:18.665Z,4317.82
2023-04-27T11:31:18.661Z,4307.45
2023-04-27T11:32:18.635Z,4457.33
2023-04-27T11:33:18.629Z,4540.08
2023-04-27T11:34:19.495Z,4528.62
2023-04-27T11:35:18.626Z,4521.01
2023-04-27T11:36:18.580Z,4521.01
2023-04-27T11:37:18.893Z,4366.88
2023-04-27T11:38:18.604Z,4658.01
2023-04-27T11:39:18.639Z,5023.34
2023-04-27T11:40:18.543Z,5153.26
2023-04-27T11:41:18.570Z,5203.10
2023-04-27T11:42:18.534Z,5705.20
2023-04-27T11:43:18.514Z,6004.46
2023-04-27T11:44:18.489Z,5747.86
2023-04-27T11:45:18.520Z,5592.52
2023-04-27T11:46:18.533Z,5300.49
2023-04-27T11:47:19.111Z,5569.36
2023-04-27T11:48:18.490Z,4803.57
2023-04-27T11:49:18.465Z,4536.26
2023-04-27T11:50:18.468Z,4494.57
2023-04-27T11:51:18.460Z,5000.00
2023-04-27T11:52:18.512Z,5274.51
2023-04-27T11:53:19.090Z,4559.32
2023-04-27T11:54:18.409Z,4740.09
2023-04-27T11:55:18.379Z,4786.48
2023-04-27T11:56:18.395Z,4777.98
2023-04-27T11:57:18.374Z,5004.65
2023-04-27T11:58:18.374Z,5310.96
2023-04-27T11:59:18.345Z,5489.80
2023-04-27T12:00:18.314Z,5938.19
2023-04-27T12:01:27.811Z,5841.48
2023-04-27T12:02:18.400Z,5797.41
2023-04-27T12:03:18.508Z,5675.11
2023-04-27T12:04:18.741Z,5218.23
2023-04-27T12:05:18.303Z,4931.26
2023-04-27T12:07:18.252Z,4054.26
2023-04-27T12:08:18.254Z,3967.55
2023-04-27T12:09:18.220Z,3402.91
2023-04-27T12:10:18.253Z,3366.71
2023-04-27T12:11:18.192Z,3605.90
2023-04-27T12:12:18.191Z,3851.11
2023-04-27T12:13:18.180Z,3932.75
2023-04-27T12:14:18.159Z,3810.20
2023-04-27T12:15:18.186Z,3775.44
2023-04-27T12:16:18.167Z,3991.10
2023-04-27T12:17:18.200Z,4286.85
2023-04-27T12:18:18.122Z,4855.60
2023-04-27T12:19:18.100Z,5484.20
2023-04-27T12:20:18.121Z,5512.29
2023-04-27T12:21:18.083Z,5484.20